Time;durP1;ratioP1;P1;durP2;ratioP2;P2;SDS_P1;SDS_P2;PMS_P1;PMS_P2;Temp;Humidity;BMP_temperature;BMP_pressure;BME280_temperature;BME280_humidity;BME280_pressure;Samples;Min_cycle;Max_cycle;Signal;HPM_P1;HPM_P2
2023/07/22 00:02:23;;;;;;;8.57;4.03;;;16.00;80.40;;;;;;5034717;28;20026;-83
2023/07/22 00:04:49;;;;;;;9.10;4.97;;;16.00;80.60;;;;;;5036021;28;20025;-82
2023/07/22 00:07:15;;;;;;;8.05;4.50;;;16.00;80.60;;;;;;5035944;28;20029;-82
2023/07/22 00:09:43;;;;;;;8.25;4.07;;;16.00;80.80;;;;;;5018005;28;20481;-83
2023/07/22 00:12:09;;;;;;;9.20;4.90;;;15.90;81.50;;;;;;5034560;28;20017;-82
2023/07/22 00:14:39;;;;;;;9.88;4.85;;;15.90;81.00;;;;;;5035675;28;20026;-82
2023/07/22 00:17:05;;;;;;;11.23;5.38;;;15.90;81.80;;;;;;5034433;28;20021;-82
2023/07/22 00:19:30;;;;;;;9.10;5.18;;;15.80;81.20;;;;;;5035621;28;20054;-82
2023/07/22 00:21:56;;;;;;;11.10;4.88;;;15.80;81.40;;;;;;5035693;28;20075;-82
2023/07/22 00:24:22;;;;;;;9.52;5.22;;;15.80;81.60;;;;;;5017909;28;20359;-82
2023/07/22 00:26:49;;;;;;;10.18;5.10;;;15.80;81.70;;;;;;5017879;28;20029;-82
2023/07/22 00:29:15;;;;;;;9.45;5.20;;;15.70;81.80;;;;;;5034337;28;20080;-82
2023/07/22 00:31:41;;;;;;;10.27;5.20;;;15.70;82.00;;;;;;5034793;28;20532;-82
2023/07/22 00:34:07;;;;;;;9.68;5.15;;;15.70;82.20;;;;;;5035467;28;20109;-82
2023/07/22 00:36:32;;;;;;;9.40;5.65;;;15.70;82.30;;;;;;5034268;28;20025;-82
2023/07/22 00:38:58;;;;;;;11.00;4.82;;;15.70;82.40;;;;;;5034287;28;20034;-82
2023/07/22 00:41:23;;;;;;;9.02;4.93;;;15.70;82.70;;;;;;5035458;28;20037;-76
2023/07/22 00:43:49;;;;;;;11.13;5.65;;;15.60;82.80;;;;;;5017716;28;20458;-76
2023/07/22 00:46:15;;;;;;;9.93;5.57;;;15.70;83.00;;;;;;5033934;28;20030;-76
2023/07/22 00:48:41;;;;;;;10.45;5.10;;;15.70;83.20;;;;;;5033980;28;20074;-76
2023/07/22 00:51:06;;;;;;;9.55;5.13;;;15.70;83.30;;;;;;5034310;28;20018;-82
2023/07/22 00:53:32;;;;;;;11.30;6.38;;;15.60;83.40;;;;;;5033804;28;20029;-81
2023/07/22 00:55:58;;;;;;;10.40;5.50;;;15.70;83.70;;;;;;5034059;28;20425;-82
2023/07/22 00:58:24;;;;;;;11.07;5.82;;;15.60;83.80;;;;;;5034958;28;20095;-81
2023/07/22 01:00:49;;;;;;;10.88;5.68;;;15.60;84.00;;;;;;5033844;28;20033;-82
2023/07/22 01:03:15;;;;;;;12.30;6.28;;;15.70;84.10;;;;;;5033632;28;20083;-81
2023/07/22 01:05:41;;;;;;;11.32;6.78;;;15.60;84.20;;;;;;5034829;28;20029;-82
2023/07/22 01:08:07;;;;;;;10.30;6.28;;;15.70;84.30;;;;;;5033387;28;20036;-81
2023/07/22 01:10:33;;;;;;;10.60;6.18;;;15.70;84.50;;;;;;5033537;28;20037;-82
2023/07/22 01:12:58;;;;;;;12.20;6.90;;;15.70;84.60;;;;;;5033670;28;20025;-81
2023/07/22 01:15:25;;;;;;;11.68;6.55;;;15.70;84.70;;;;;;5033438;28;20026;-80
2023/07/22 01:17:51;;;;;;;12.98;7.25;;;15.70;84.80;;;;;;5034674;28;20017;-82
2023/07/22 01:20:18;;;;;;;11.65;7.07;;;15.70;84.90;;;;;;5016663;28;20045;-81
2023/07/22 01:22:54;;;;;;;12.52;7.05;;;15.70;85.00;;;;;;5033334;28;20037;-82
2023/07/22 01:25:23;;;;;;;12.70;7.00;;;15.70;85.10;;;;;;5033239;28;20090;-82
2023/07/22 01:27:50;;;;;;;12.57;7.68;;;15.70;85.10;;;;;;5016482;28;20041;-82
2023/07/22 01:30:16;;;;;;;13.63;7.97;;;15.80;85.20;;;;;;5034342;28;20065;-82
2023/07/22 01:32:42;;;;;;;14.20;7.30;;;15.70;85.10;;;;;;5033098;28;20064;-82
2023/07/22 01:35:08;;;;;;;11.73;7.13;;;15.70;85.20;;;;;;5033037;28;20036;-82
2023/07/22 01:37:34;;;;;;;13.88;7.50;;;15.80;85.40;;;;;;5034226;28;20029;-82
2023/07/22 01:40:01;;;;;;;15.65;8.20;;;15.80;85.60;;;;;;5033264;28;20021;-83
2023/07/22 01:42:27;;;;;;;14.95;8.30;;;15.70;85.70;;;;;;5034192;28;20029;-75
2023/07/22 01:44:53;;;;;;;14.57;8.30;;;15.70;85.80;;;;;;5034223;28;20113;-76
2023/07/22 01:47:19;;;;;;;14.20;7.68;;;15.70;85.90;;;;;;5034031;28;20535;-76
2023/07/22 01:49:45;;;;;;;13.68;8.00;;;15.70;86.00;;;;;;5033183;28;20034;-75
2023/07/22 01:52:10;;;;;;;14.80;8.75;;;15.70;86.20;;;;;;5032728;28;20104;-75
2023/07/22 01:54:36;;;;;;;14.73;8.93;;;15.60;86.20;;;;;;5034075;28;20447;-77
2023/07/22 01:57:02;;;;;;;16.88;8.80;;;15.60;86.40;;;;;;5032846;28;20029;-77
2023/07/22 01:59:27;;;;;;;14.95;8.88;;;15.60;86.60;;;;;;5032654;28;20033;-75
2023/07/22 02:01:53;;;;;;;15.07;8.90;;;15.60;86.80;;;;;;5033802;28;20033;-75
2023/07/22 02:04:18;;;;;;;17.58;9.55;;;15.50;86.90;;;;;;5015930;28;20116;-76
2023/07/22 02:06:44;;;;;;;16.85;9.10;;;15.50;87.20;;;;;;5033884;28;20133;-76
2023/07/22 02:09:13;;;;;;;16.20;9.48;;;15.50;87.50;;;;;;5032478;28;20454;-76
2023/07/22 02:11:39;;;;;;;17.13;9.05;;;15.40;87.50;;;;;;5032398;28;20022;-77
2023/07/22 02:14:06;;;;;;;14.35;9.70;;;15.40;87.60;;;;;;5032539;28;20025;-77
2023/07/22 02:16:34;;;;;;;16.83;10.13;;;15.40;87.80;;;;;;5016806;28;20064;-76
2023/07/22 02:19:00;;;;;;;16.20;9.85;;;15.40;87.90;;;;;;5032422;28;20038;-75
2023/07/22 02:21:26;;;;;;;18.30;10.60;;;15.30;88.00;;;;;;5032079;28;20410;-76
2023/07/22 02:23:51;;;;;;;14.68;9.63;;;15.30;88.10;;;;;;5031950;28;20470;-75
2023/07/22 02:26:17;;;;;;;18.52;10.40;;;15.20;88.20;;;;;;5015244;28;20025;-76
2023/07/22 02:28:42;;;;;;;19.40;10.85;;;15.20;88.20;;;;;;5031321;28;20033;-76
2023/07/22 02:31:08;;;;;;;19.75;10.43;;;15.20;88.30;;;;;;5031592;28;20108;-75
2023/07/22 02:33:34;;;;;;;17.08;10.55;;;15.20;88.50;;;;;;5031518;28;20030;-75
2023/07/22 02:35:59;;;;;;;17.73;10.52;;;15.20;88.70;;;;;;5015215;28;20100;-75
2023/07/22 02:38:25;;;;;;;17.73;10.15;;;15.20;88.80;;;;;;5031526;28;20032;-75
2023/07/22 02:40:51;;;;;;;19.58;10.77;;;15.20;88.90;;;;;;5032600;28;20110;-75
2023/07/22 02:43:17;;;;;;;18.15;11.52;;;15.10;89.00;;;;;;5032878;28;20457;-75
2023/07/22 02:45:44;;;;;;;20.75;11.10;;;15.10;89.00;;;;;;5031693;28;20079;-74
2023/07/22 02:48:09;;;;;;;18.90;10.77;;;15.00;89.20;;;;;;5031342;28;20100;-76
2023/07/22 02:50:36;;;;;;;15.80;10.25;;;15.10;89.40;;;;;;5014618;28;20137;-75
2023/07/22 02:53:02;;;;;;;18.30;10.63;;;15.00;89.50;;;;;;5014900;28;20394;-75
2023/07/22 02:55:28;;;;;;;17.60;10.15;;;15.10;89.60;;;;;;5031216;28;20180;-75
2023/07/22 02:57:53;;;;;;;15.77;9.90;;;15.00;89.60;;;;;;5015075;28;20033;-75
2023/07/22 03:00:23;;;;;;;17.38;11.15;;;15.00;89.80;;;;;;5032550;28;20074;-76
2023/07/22 03:03:00;;;;;;;19.92;11.55;;;15.00;90.00;;;;;;5031058;28;20120;-75
2023/07/22 03:05:30;;;;;;;18.15;11.15;;;15.00;90.00;;;;;;5030896;28;20029;-76
2023/07/22 03:07:57;;;;;;;17.60;11.00;;;14.90;90.00;;;;;;5031771;28;20425;-75
2023/07/22 03:10:25;;;;;;;20.02;10.68;;;14.90;90.10;;;;;;5032072;28;20033;-76
2023/07/22 03:12:54;;;;;;;18.63;11.13;;;14.90;90.20;;;;;;5031052;28;20018;-76
2023/07/22 03:15:21;;;;;;;20.83;11.02;;;14.90;90.50;;;;;;5030918;28;20026;-75
2023/07/22 03:17:46;;;;;;;20.08;11.18;;;14.80;90.30;;;;;;5030977;28;20040;-75
2023/07/22 03:20:16;;;;;;;19.88;11.43;;;14.90;90.40;;;;;;4994227;28;1108809;-75
2023/07/22 03:22:42;;;;;;;18.95;10.93;;;14.80;90.50;;;;;;5032482;28;20549;-76
2023/07/22 03:25:10;;;;;;;19.00;10.95;;;14.80;90.60;;;;;;5032948;28;20030;-76
2023/07/22 03:27:36;;;;;;;20.02;12.07;;;14.80;90.60;;;;;;5031502;28;20071;-76
2023/07/22 03:30:15;;;;;;;20.52;10.75;;;14.80;90.70;;;;;;5031718;28;20094;-76
2023/07/22 03:32:42;;;;;;;18.58;11.07;;;14.80;90.90;;;;;;5031800;28;20449;-76
2023/07/22 03:35:11;;;;;;;22.00;11.90;;;14.80;90.90;;;;;;5033141;28;20025;-76
2023/07/22 03:37:37;;;;;;;18.58;11.30;;;14.80;91.00;;;;;;5033000;28;20037;-76
2023/07/22 03:40:08;;;;;;;19.13;11.55;;;14.80;91.10;;;;;;5032753;28;20076;-76
2023/07/22 03:42:34;;;;;;;18.55;10.95;;;14.80;91.10;;;;;;5033188;28;20025;-76
2023/07/22 03:45:01;;;;;;;21.27;9.85;;;14.80;91.10;;;;;;5015063;28;20026;-76
2023/07/22 03:47:26;;;;;;;17.48;10.45;;;14.80;91.20;;;;;;5032745;28;20022;-81
2023/07/22 03:49:52;;;;;;;19.35;10.68;;;14.80;91.20;;;;;;5033619;28;20033;-81
2023/07/22 03:52:18;;;;;;;17.60;10.57;;;14.80;91.30;;;;;;5018447;28;20022;-82
2023/07/22 03:54:44;;;;;;;18.20;10.82;;;14.80;91.30;;;;;;5035144;28;20048;-82
2023/07/22 03:57:10;;;;;;;24.08;9.98;;;14.70;91.60;;;;;;5035178;28;20105;-82
2023/07/22 03:59:35;;;;;;;22.70;10.68;;;14.70;91.40;;;;;;5034875;28;20427;-76
2023/07/22 04:02:02;;;;;;;20.70;11.20;;;14.80;91.50;;;;;;5034754;28;20026;-76
2023/07/22 04:04:27;;;;;;;19.73;10.63;;;14.70;91.50;;;;;;5034925;28;20033;-76
2023/07/22 04:06:53;;;;;;;19.95;11.75;;;14.70;91.60;;;;;;5036002;28;20380;-76
2023/07/22 04:09:19;;;;;;;20.10;11.20;;;14.70;91.70;;;;;;5035994;28;20034;-76
2023/07/22 04:11:44;;;;;;;19.33;10.93;;;14.70;91.70;;;;;;5034624;28;20486;-76
2023/07/22 04:14:12;;;;;;;20.17;11.00;;;14.60;91.80;;;;;;5018315;28;20433;-76
2023/07/22 04:16:38;;;;;;;21.00;12.10;;;14.70;91.90;;;;;;5034621;28;20017;-81
2023/07/22 04:19:05;;;;;;;25.33;12.45;;;14.60;92.00;;;;;;5035694;28;20057;-83
2023/07/22 04:21:30;;;;;;;20.17;11.45;;;14.60;92.00;;;;;;5035729;28;20072;-82
2023/07/22 04:23:56;;;;;;;19.73;11.13;;;14.60;92.20;;;;;;5035685;28;20065;-82
2023/07/22 04:26:21;;;;;;;18.90;10.48;;;14.60;92.20;;;;;;5035686;28;20056;-82
2023/07/22 04:28:47;;;;;;;24.90;12.00;;;14.70;92.40;;;;;;5036090;28;20038;-82
2023/07/22 04:31:13;;;;;;;22.65;12.65;;;14.60;92.50;;;;;;5053480;28;20399;-81
2023/07/22 04:33:38;;;;;;;19.65;11.05;;;14.70;92.40;;;;;;5055292;28;20024;-81
2023/07/22 04:36:04;;;;;;;21.55;12.40;;;14.70;92.50;;;;;;5055274;28;20029;-83
2023/07/22 04:38:29;;;;;;;18.80;9.90;;;14.60;92.60;;;;;;5054149;28;20486;-81
2023/07/22 04:40:55;;;;;;;20.85;11.30;;;14.60;92.70;;;;;;5054893;28;20025;-82
2023/07/22 04:43:21;;;;;;;20.95;11.60;;;14.70;92.80;;;;;;5037330;28;20042;-81
2023/07/22 04:45:50;;;;;;;21.55;11.43;;;14.70;92.90;;;;;;5053677;28;20083;-81
2023/07/22 04:48:18;;;;;;;20.20;11.30;;;14.70;92.90;;;;;;5053252;28;20009;-82
2023/07/22 04:50:45;;;;;;;19.95;11.18;;;14.80;93.10;;;;;;5055039;28;20063;-82
2023/07/22 04:53:12;;;;;;;22.08;11.73;;;14.80;93.10;;;;;;5036862;28;20473;-82
2023/07/22 04:55:39;;;;;;;21.10;11.60;;;14.80;93.10;;;;;;5053690;28;20021;-82
2023/07/22 04:58:05;;;;;;;23.67;12.48;;;14.80;93.20;;;;;;5051517;28;20035;-84
2023/07/22 05:00:31;;;;;;;25.77;13.15;;;14.80;93.20;;;;;;5036920;28;20041;-82
2023/07/22 05:02:57;;;;;;;21.27;12.02;;;14.80;93.30;;;;;;5052623;28;20025;-82
2023/07/22 05:05:23;;;;;;;21.88;12.75;;;14.90;93.40;;;;;;5052880;28;20540;-83
2023/07/22 05:07:49;;;;;;;20.77;12.55;;;14.90;93.80;;;;;;5053323;28;20556;-82
2023/07/22 05:10:15;;;;;;;24.98;13.07;;;14.90;93.50;;;;;;5052792;28;20104;-82
2023/07/22 05:12:42;;;;;;;25.17;12.30;;;14.90;93.60;;;;;;5053265;28;20057;-83
2023/07/22 05:15:09;;;;;;;22.15;11.98;;;15.00;93.70;;;;;;5053296;28;20025;-83
2023/07/22 05:17:35;;;;;;;22.77;12.85;;;15.00;93.70;;;;;;5036747;28;20501;-82
2023/07/22 05:20:00;;;;;;;20.23;12.30;;;15.10;93.80;;;;;;5053121;28;20056;-83
2023/07/22 05:22:26;;;;;;;23.83;13.38;;;15.10;93.80;;;;;;5053349;28;20043;-83
2023/07/22 05:24:51;;;;;;;21.40;12.07;;;15.10;93.80;;;;;;5054166;28;20127;-83
2023/07/22 05:27:18;;;;;;;26.50;13.48;;;15.10;93.80;;;;;;5053014;28;20056;-83
2023/07/22 05:29:44;;;;;;;23.58;13.10;;;15.20;93.90;;;;;;5053981;28;20118;-83
2023/07/22 05:32:10;;;;;;;23.60;13.43;;;15.20;93.90;;;;;;5051913;28;20473;-82
2023/07/22 05:34:36;;;;;;;21.98;12.77;;;15.20;93.90;;;;;;5048973;28;20115;-82
2023/07/22 05:37:01;;;;;;;22.80;13.02;;;15.30;94.00;;;;;;5052160;28;20116;-82
2023/07/22 05:39:27;;;;;;;23.63;13.75;;;15.30;94.00;;;;;;5034413;28;20485;-82
2023/07/22 05:41:53;;;;;;;22.52;12.88;;;15.40;94.00;;;;;;5032773;28;20389;-82
2023/07/22 05:44:19;;;;;;;21.95;13.23;;;15.40;94.00;;;;;;5033800;28;20041;-82
2023/07/22 05:46:44;;;;;;;24.77;13.77;;;15.40;94.00;;;;;;5034020;28;20029;-82
2023/07/22 05:49:12;;;;;;;23.83;13.40;;;15.50;94.10;;;;;;5032790;28;20044;-83
2023/07/22 05:51:38;;;;;;;20.90;12.65;;;15.60;94.10;;;;;;5016609;28;20548;-84
2023/07/22 05:54:04;;;;;;;20.45;12.25;;;15.60;94.00;;;;;;5032698;28;20108;-82
2023/07/22 05:56:30;;;;;;;22.02;12.32;;;15.60;94.00;;;;;;5033795;28;20044;-84
2023/07/22 05:58:55;;;;;;;24.00;14.23;;;15.60;93.90;;;;;;5032703;28;20033;-83
2023/07/22 06:01:21;;;;;;;22.15;12.65;;;15.70;93.90;;;;;;5033869;28;20492;-84
2023/07/22 06:03:47;;;;;;;22.65;13.80;;;15.70;93.90;;;;;;5033792;28;20033;-83
2023/07/22 06:06:13;;;;;;;22.08;14.18;;;15.70;93.80;;;;;;5033767;28;20108;-83
2023/07/22 06:08:39;;;;;;;22.67;13.13;;;15.80;93.90;;;;;;5015827;28;20026;-82
2023/07/22 06:11:05;;;;;;;21.30;12.63;;;15.80;93.90;;;;;;5032689;28;20037;-84
2023/07/22 06:13:30;;;;;;;20.67;12.48;;;15.90;94.00;;;;;;5033380;28;20034;-83
2023/07/22 06:15:56;;;;;;;23.42;13.55;;;16.00;94.00;;;;;;5035781;28;20086;-82
2023/07/22 06:18:22;;;;;;;23.67;13.10;;;16.10;93.90;;;;;;5052045;28;20462;-81
2023/07/22 06:20:47;;;;;;;22.60;13.85;;;16.20;93.90;;;;;;5051756;28;20025;-81
2023/07/22 06:23:13;;;;;;;21.80;13.13;;;16.30;93.80;;;;;;5053238;28;20040;-82
2023/07/22 06:25:39;;;;;;;20.75;12.65;;;16.40;93.80;;;;;;5053392;28;20037;-81
2023/07/22 06:28:05;;;;;;;22.38;12.70;;;16.40;93.60;;;;;;5052077;28;20040;-82
2023/07/22 06:30:30;;;;;;;26.50;14.30;;;16.50;93.60;;;;;;5053057;28;20086;-81
2023/07/22 06:32:56;;;;;;;19.25;12.43;;;16.50;93.50;;;;;;5053141;28;20037;-81
2023/07/22 06:35:22;;;;;;;20.75;13.88;;;16.60;93.40;;;;;;5035242;28;20029;-81
2023/07/22 06:37:47;;;;;;;16.17;11.00;;;16.60;93.30;;;;;;5053398;28;20025;-76
2023/07/22 06:40:13;;;;;;;23.83;12.85;;;16.70;93.30;;;;;;5052283;28;20090;-75
2023/07/22 06:42:39;;;;;;;23.23;13.68;;;16.70;93.10;;;;;;5035056;28;20489;-74
2023/07/22 06:45:05;;;;;;;21.85;13.18;;;16.70;92.90;;;;;;5050975;28;20072;-75
2023/07/22 06:47:30;;;;;;;23.95;14.40;;;16.80;92.90;;;;;;5053280;28;20087;-76
2023/07/22 06:49:57;;;;;;;20.90;12.50;;;16.80;92.80;;;;;;5034874;28;20054;-75
2023/07/22 06:52:22;;;;;;;23.98;13.55;;;16.90;92.80;;;;;;5051329;28;20037;-76
2023/07/22 06:54:48;;;;;;;20.10;12.70;;;17.00;92.70;;;;;;5052644;28;20462;-76
2023/07/22 06:57:13;;;;;;;21.10;12.55;;;17.00;92.70;;;;;;5052671;28;20026;-76
2023/07/22 06:59:39;;;;;;;22.10;13.35;;;17.10;92.60;;;;;;5051582;28;20033;-76
2023/07/22 07:02:05;;;;;;;17.40;11.15;;;17.20;92.60;;;;;;5051233;28;20029;-76
2023/07/22 07:04:30;;;;;;;16.85;11.27;;;17.30;92.60;;;;;;5052850;28;20037;-75
2023/07/22 07:06:56;;;;;;;19.00;11.15;;;17.40;92.50;;;;;;5051523;28;20029;-76
2023/07/22 07:09:22;;;;;;;20.08;11.68;;;17.40;92.40;;;;;;5052520;28;20545;-76
2023/07/22 07:11:47;;;;;;;20.63;12.35;;;17.50;92.20;;;;;;5051019;28;20534;-76
2023/07/22 07:14:13;;;;;;;18.05;11.30;;;17.40;92.00;;;;;;5034516;28;20031;-75
2023/07/22 07:16:39;;;;;;;22.73;12.63;;;17.50;92.30;;;;;;5051329;28;20100;-76
2023/07/22 07:19:04;;;;;;;21.33;12.68;;;17.50;91.90;;;;;;5051104;28;20064;-76
2023/07/22 07:21:30;;;;;;;20.50;12.02;;;17.50;91.90;;;;;;5027983;28;20064;-76
2023/07/22 07:23:56;;;;;;;21.33;11.50;;;17.50;91.80;;;;;;5034626;28;20039;-76
2023/07/22 07:26:22;;;;;;;19.42;11.52;;;17.50;91.80;;;;;;5038744;28;20033;-80
2023/07/22 07:28:50;;;;;;;20.45;11.35;;;17.50;91.70;;;;;;5054268;28;20037;-83
2023/07/22 07:31:16;;;;;;;20.20;10.48;;;17.60;91.70;;;;;;5035924;28;20029;-80
2023/07/22 07:33:42;;;;;;;17.35;10.07;;;17.60;91.70;;;;;;5035000;28;20452;-76
2023/07/22 07:36:08;;;;;;;17.08;10.07;;;17.70;91.70;;;;;;5052569;28;20059;-77
2023/07/22 07:38:33;;;;;;;16.90;10.50;;;17.80;91.70;;;;;;5054360;28;20404;-76
2023/07/22 07:41:02;;;;;;;19.92;10.82;;;17.90;91.60;;;;;;5020456;28;20021;-83
2023/07/22 07:43:28;;;;;;;19.45;9.77;;;18.00;91.50;;;;;;5052046;28;20032;-83
2023/07/22 07:46:14;;;;;;;18.08;9.80;;;18.10;91.70;;;;;;5054709;28;20033;-82
2023/07/22 07:48:39;;;;;;;17.35;9.55;;;18.20;91.40;;;;;;5062508;28;20035;-83
2023/07/22 07:51:06;;;;;;;15.13;9.48;;;18.20;91.10;;;;;;5054808;28;20033;-83
2023/07/22 07:53:31;;;;;;;16.60;9.75;;;18.30;91.10;;;;;;5038288;28;20849;-84
2023/07/22 07:55:57;;;;;;;14.25;9.57;;;18.30;91.20;;;;;;5055673;28;20563;-82
2023/07/22 07:58:22;;;;;;;17.27;10.30;;;18.40;90.90;;;;;;5056193;28;20079;-82
2023/07/22 08:00:48;;;;;;;15.32;9.52;;;18.50;90.70;;;;;;5059586;28;20063;-76
2023/07/22 08:03:14;;;;;;;15.30;8.35;;;18.60;90.50;;;;;;5054298;28;20067;-76
2023/07/22 08:05:39;;;;;;;13.75;8.48;;;18.80;90.30;;;;;;5057210;28;20032;-76
2023/07/22 08:08:05;;;;;;;15.10;9.38;;;18.90;90.20;;;;;;5053968;28;20070;-76
2023/07/22 08:10:31;;;;;;;16.40;8.55;;;19.00;89.70;;;;;;5053910;28;20083;-76
2023/07/22 08:12:56;;;;;;;15.50;8.73;;;19.00;89.00;;;;;;5055524;28;20021;-83
2023/07/22 08:15:22;;;;;;;12.60;7.45;;;19.10;88.40;;;;;;5055905;28;20556;-84
2023/07/22 08:17:47;;;;;;;12.07;7.63;;;19.20;88.10;;;;;;5071388;28;20032;-83
2023/07/22 08:20:13;;;;;;;13.45;7.45;;;19.30;87.30;;;;;;5054224;28;20060;-84
2023/07/22 08:22:39;;;;;;;13.30;7.40;;;19.40;86.70;;;;;;5037706;28;20389;-83
2023/07/22 08:25:05;;;;;;;14.68;8.70;;;19.40;86.10;;;;;;5054319;28;20033;-83
2023/07/22 08:27:30;;;;;;;14.65;7.95;;;19.50;85.60;;;;;;5055541;28;20167;-83
2023/07/22 08:29:56;;;;;;;13.75;7.95;;;19.60;84.90;;;;;;5037340;28;20524;-82
2023/07/22 08:32:22;;;;;;;14.65;7.78;;;19.60;84.50;;;;;;5055322;28;20044;-83
2023/07/22 08:34:47;;;;;;;13.35;8.20;;;19.70;84.30;;;;;;5055316;28;20029;-76
2023/07/22 08:37:13;;;;;;;12.55;7.90;;;19.80;83.70;;;;;;5037451;28;20029;-76
2023/07/22 08:39:38;;;;;;;11.55;7.28;;;19.80;83.30;;;;;;5054279;28;20052;-75
2023/07/22 08:42:06;;;;;;;12.82;7.07;;;19.90;83.40;;;;;;5055177;28;20053;-83
2023/07/22 08:44:36;;;;;;;12.85;7.90;;;20.00;83.00;;;;;;5054074;28;20031;-82
2023/07/22 08:47:06;;;;;;;11.98;7.47;;;20.10;82.30;;;;;;5075141;28;20392;-83
2023/07/22 08:49:33;;;;;;;13.90;7.00;;;20.10;81.80;;;;;;5075128;28;20070;-83
2023/07/22 08:52:00;;;;;;;11.30;7.70;;;20.20;81.00;;;;;;5073236;28;20036;-82
2023/07/22 08:54:26;;;;;;;15.02;8.30;;;20.30;80.90;;;;;;5055019;28;20021;-76
2023/07/22 08:56:52;;;;;;;14.90;8.60;;;20.30;80.70;;;;;;5056306;28;20564;-75
2023/07/22 08:59:18;;;;;;;14.30;8.55;;;20.30;80.50;;;;;;5037392;28;20112;-74
2023/07/22 09:01:45;;;;;;;12.25;7.60;;;20.40;80.10;;;;;;5034674;28;20042;-75
2023/07/22 09:04:10;;;;;;;14.80;8.05;;;20.40;79.80;;;;;;5035208;28;20046;-75
2023/07/22 09:06:36;;;;;;;15.98;8.30;;;20.40;79.10;;;;;;5034984;28;20446;-75
2023/07/22 09:09:07;;;;;;;13.20;8.35;;;20.40;78.40;;;;;;5048675;28;20119;-75
2023/07/22 09:11:33;;;;;;;13.57;8.48;;;20.40;78.00;;;;;;5042126;28;20021;-74
2023/07/22 09:14:01;;;;;;;12.70;7.95;;;20.40;77.80;;;;;;5053021;28;20505;-73
2023/07/22 09:16:28;;;;;;;14.52;7.30;;;20.40;77.40;;;;;;5056564;28;20025;-76
2023/07/22 09:19:00;;;;;;;14.40;7.18;;;20.40;77.30;;;;;;5053629;28;20057;-76
2023/07/22 09:21:27;;;;;;;12.07;6.20;;;20.50;77.30;;;;;;5062162;28;20358;-75
2023/07/22 09:23:53;;;;;;;10.55;5.75;;;20.60;77.40;;;;;;5036266;28;20512;-77
2023/07/22 09:26:20;;;;;;;11.52;5.28;;;20.70;77.40;;;;;;5037360;28;20033;-76
2023/07/22 09:28:54;;;;;;;9.40;5.47;;;20.70;76.80;;;;;;5053999;28;20047;-75
2023/07/22 09:31:28;;;;;;;9.80;4.47;;;20.70;75.80;;;;;;5054287;28;20032;-76
2023/07/22 09:33:54;;;;;;;9.32;4.60;;;20.70;75.30;;;;;;5054144;28;20025;-75
2023/07/22 09:36:20;;;;;;;8.75;4.43;;;20.60;74.60;;;;;;5054542;28;20028;-76
2023/07/22 09:38:59;;;;;;;8.88;4.35;;;20.70;74.80;;;;;;5053989;28;20057;-75
2023/07/22 09:41:30;;;;;;;9.45;4.45;;;20.70;74.40;;;;;;5066837;28;20370;-75
2023/07/22 09:43:56;;;;;;;7.07;3.88;;;20.70;73.90;;;;;;5036513;28;20029;-76
2023/07/22 09:46:30;;;;;;;8.18;4.10;;;20.80;74.20;;;;;;5034549;28;20026;-75
2023/07/22 09:48:56;;;;;;;12.27;5.40;;;20.90;73.80;;;;;;5056873;28;20040;-75
2023/07/22 09:51:21;;;;;;;7.97;4.57;;;21.10;73.30;;;;;;5038100;28;20021;-76
2023/07/22 09:53:58;;;;;;;9.73;4.63;;;21.10;73.20;;;;;;5028129;28;20388;-75
2023/07/22 09:56:24;;;;;;;6.88;3.60;;;21.20;73.10;;;;;;5073397;28;20032;-76
2023/07/22 09:58:51;;;;;;;8.00;3.72;;;21.30;72.80;;;;;;5073608;28;20032;-76
2023/07/22 10:01:20;;;;;;;7.30;3.83;;;21.40;71.90;;;;;;5053593;28;20120;-76
2023/07/22 10:03:50;;;;;;;6.93;3.30;;;21.50;71.30;;;;;;5052538;28;20051;-76
2023/07/22 10:06:16;;;;;;;10.85;4.03;;;21.50;70.70;;;;;;5053276;28;20052;-76
2023/07/22 10:08:45;;;;;;;10.40;4.18;;;21.50;70.50;;;;;;5053333;28;20508;-75
2023/07/22 10:11:13;;;;;;;8.00;4.50;;;21.60;71.30;;;;;;5053486;28;20035;-75
2023/07/22 10:13:38;;;;;;;6.60;3.78;;;21.70;70.30;;;;;;5053110;28;20040;-76
2023/07/22 10:16:05;;;;;;;7.97;3.38;;;21.70;70.00;;;;;;5052734;28;20024;-76
2023/07/22 10:18:32;;;;;;;7.85;4.35;;;21.80;70.30;;;;;;5052913;28;20079;-75
2023/07/22 10:20:58;;;;;;;7.35;3.70;;;21.90;70.20;;;;;;5053177;28;20025;-85
2023/07/22 10:23:26;;;;;;;9.32;3.65;;;21.90;70.20;;;;;;5053352;28;20485;-84
2023/07/22 10:25:53;;;;;;;7.65;3.85;;;22.10;70.10;;;;;;5052295;28;20032;-83
2023/07/22 10:28:23;;;;;;;7.40;3.80;;;22.20;69.40;;;;;;5053402;28;20035;-83
2023/07/22 10:30:49;;;;;;;10.43;3.47;;;22.20;69.10;;;;;;5052207;28;20116;-83
2023/07/22 10:33:16;;;;;;;6.25;3.25;;;22.30;68.70;;;;;;5036011;28;20033;-84
2023/07/22 10:35:44;;;;;;;8.00;3.90;;;22.40;68.60;;;;;;5035675;28;20505;-84
2023/07/22 10:38:16;;;;;;;7.88;3.42;;;22.50;68.70;;;;;;5053421;28;20354;-84
2023/07/22 10:40:54;;;;;;;6.45;3.28;;;22.60;68.30;;;;;;5036026;28;20175;-84
2023/07/22 10:43:36;;;;;;;8.00;2.80;;;22.60;67.30;;;;;;5053448;28;20384;-82
2023/07/22 10:46:12;;;;;;;7.82;3.47;;;22.60;66.30;;;;;;5051750;28;20489;-75
2023/07/22 10:48:41;;;;;;;6.53;3.13;;;22.60;66.40;;;;;;5053622;28;20025;-75
2023/07/22 10:51:15;;;;;;;7.00;2.72;;;22.60;65.90;;;;;;5053376;28;20025;-75
2023/07/22 10:53:46;;;;;;;4.78;2.53;;;22.50;66.40;;;;;;5051770;28;20424;-74
2023/07/22 10:56:19;;;;;;;9.50;2.55;;;22.60;66.80;;;;;;5053243;28;20021;-76
2023/07/22 10:58:44;;;;;;;8.07;3.42;;;22.60;65.80;;;;;;5052825;28;20086;-76
2023/07/22 11:01:47;;;;;;;6.07;2.33;;;22.50;65.00;;;;;;5055158;28;20108;-75
2023/07/22 11:04:30;;;;;;;5.10;2.17;;;22.40;65.00;;;;;;5056963;28;20025;-75
2023/07/22 11:07:04;;;;;;;4.00;2.03;;;22.30;65.20;;;;;;5049433;28;20482;-75
2023/07/22 11:09:30;;;;;;;;;;;22.30;65.20;;;;;;5035546;28;20068;-75
2023/07/22 11:12:02;;;;;;;5.43;2.85;;;22.10;64.80;;;;;;5052176;28;19905;-75
2023/07/22 11:14:30;;;;;;;6.95;2.92;;;21.90;64.50;;;;;;5036854;28;20053;-74
2023/07/22 11:17:03;;;;;;;6.68;2.45;;;21.80;64.50;;;;;;5036586;28;20013;-74
2023/07/22 11:19:29;;;;;;;5.93;2.60;;;21.70;65.00;;;;;;5035520;28;20049;-75
2023/07/22 11:21:55;;;;;;;5.97;2.47;;;21.60;65.50;;;;;;5036753;28;20029;-74
2023/07/22 11:24:23;;;;;;;7.68;2.63;;;21.50;65.90;;;;;;5036802;28;20029;-75
2023/07/22 11:26:49;;;;;;;5.32;2.25;;;21.40;65.80;;;;;;5035297;28;20022;-75
2023/07/22 11:29:16;;;;;;;5.65;2.28;;;21.40;66.10;;;;;;5019390;28;20381;-75
2023/07/22 11:31:45;;;;;;;10.35;2.65;;;21.30;66.10;;;;;;5036575;28;20053;-75
2023/07/22 11:34:15;;;;;;;8.10;3.03;;;21.30;66.40;;;;;;5036448;28;20096;-75
2023/07/22 11:36:41;;;;;;;5.80;2.35;;;21.30;66.60;;;;;;5036394;28;20025;-76
2023/07/22 11:39:09;;;;;;;5.03;2.38;;;21.20;66.90;;;;;;5035093;28;20474;-75
2023/07/22 11:41:36;;;;;;;5.00;2.13;;;21.20;67.20;;;;;;5035179;28;20021;-74
2023/07/22 11:44:08;;;;;;;6.78;2.38;;;21.20;67.50;;;;;;5035630;28;20025;-75
2023/07/22 11:46:35;;;;;;;6.93;2.83;;;21.30;67.70;;;;;;5042590;28;20045;-75
2023/07/22 11:49:02;;;;;;;4.72;1.92;;;21.40;67.50;;;;;;5055010;28;20025;-75
2023/07/22 11:51:27;;;;;;;4.63;2.13;;;21.40;67.10;;;;;;5056478;28;20025;-75
2023/07/22 11:53:54;;;;;;;7.45;2.20;;;21.30;67.00;;;;;;5055385;28;20040;-84
2023/07/22 11:56:27;;;;;;;5.65;1.85;;;21.30;66.50;;;;;;5056305;28;20013;-84
2023/07/22 11:58:55;;;;;;;4.47;1.73;;;21.20;66.80;;;;;;5054896;28;20032;-84
2023/07/22 12:01:21;;;;;;;5.50;1.60;;;21.10;66.70;;;;;;5054605;28;20354;-84
2023/07/22 12:03:47;;;;;;;6.00;1.95;;;21.10;66.90;;;;;;5050856;28;20060;-84
2023/07/22 12:06:13;;;;;;;5.70;2.10;;;21.00;66.80;;;;;;5040907;28;20410;-84
2023/07/22 12:08:47;;;;;;;4.47;1.30;;;21.10;66.90;;;;;;5036217;28;20025;-84
2023/07/22 12:11:24;;;;;;;3.83;1.48;;;21.30;67.20;;;;;;5038471;28;20049;-86
2023/07/22 12:14:13;;;;;;;4.35;1.38;;;21.50;67.30;;;;;;5055667;28;20104;-84
2023/07/22 12:16:41;;;;;;;4.82;1.55;;;22.00;67.40;;;;;;5056047;28;20037;-83
2023/07/22 12:19:10;;;;;;;4.22;1.40;;;22.20;66.70;;;;;;5055694;28;20049;-83
2023/07/22 12:21:35;;;;;;;4.40;1.40;;;22.30;65.90;;;;;;5062467;28;20481;-83
2023/07/22 12:24:01;;;;;;;4.20;1.52;;;22.40;64.90;;;;;;5075816;28;20043;-85
2023/07/22 12:26:27;;;;;;;4.05;1.10;;;22.30;64.50;;;;;;5074034;28;20044;-77
2023/07/22 12:28:54;;;;;;;4.45;1.20;;;22.30;63.90;;;;;;5041274;28;20037;-83
2023/07/22 12:31:19;;;;;;;3.03;1.00;;;22.10;63.30;;;;;;5070397;28;20070;-84
2023/07/22 12:33:45;;;;;;;4.00;1.20;;;22.00;63.30;;;;;;5054206;28;20119;-85
2023/07/22 12:36:11;;;;;;;3.15;1.17;;;21.90;63.50;;;;;;5056510;28;20029;-82